sensor_id;sensor_type;location;lat;lon;timestamp;pressure;altitude;pressure_sealevel;temperature;humidity
40117;BME280;25829;50.228;18.936;2024-01-10T00:01:30;100311.53;;;-15.00;62.17
40117;BME280;25829;50.228;18.936;2024-01-10T00:04:31;100304.78;;;-14.97;62.10
40117;BME280;25829;50.228;18.936;2024-01-10T00:07:32;100300.53;;;-14.96;61.86
40117;BME280;25829;50.228;18.936;2024-01-10T00:10:32;100314.03;;;-14.96;61.85
40117;BME280;25829;50.228;18.936;2024-01-10T00:13:33;100297.16;;;-14.93;62.18
40117;BME280;25829;50.228;18.936;2024-01-10T00:16:34;100301.38;;;-14.92;61.87
40117;BME280;25829;50.228;18.936;2024-01-10T00:19:35;100292.94;;;-14.96;61.96
40117;BME280;25829;50.228;18.936;2024-01-10T00:22:36;100292.94;;;-14.96;62.03
40117;BME280;25829;50.228;18.936;2024-01-10T00:25:36;100278.59;;;-14.99;62.13
40117;BME280;25829;50.228;18.936;2024-01-10T00:28:37;100279.44;;;-15.07;61.61
40117;BME280;25829;50.228;18.936;2024-01-10T00:31:39;100285.38;;;-15.17;61.65
40117;BME280;25829;50.228;18.936;2024-01-10T00:34:40;100286.22;;;-15.18;62.42
40117;BME280;25829;50.228;18.936;2024-01-10T00:37:40;100284.53;;;-15.20;61.41
40117;BME280;25829;50.228;18.936;2024-01-10T00:40:41;100286.22;;;-15.26;61.76
40117;BME280;25829;50.228;18.936;2024-01-10T00:43:42;100290.44;;;-15.39;61.02
40117;BME280;25829;50.228;18.936;2024-01-10T00:46:43;100293.81;;;-15.54;61.21
40117;BME280;25829;50.228;18.936;2024-01-10T00:49:44;100299.69;;;-15.70;61.33
40117;BME280;25829;50.228;18.936;2024-01-10T00:52:47;100305.63;;;-15.79;61.67
40117;BME280;25829;50.228;18.936;2024-01-10T00:55:48;100311.53;;;-15.69;61.96
40117;BME280;25829;50.228;18.936;2024-01-10T00:58:49;100298.03;;;-15.62;62.20
40117;BME280;25829;50.228;18.936;2024-01-10T01:01:49;100298.03;;;-15.53;62.54
40117;BME280;25829;50.228;18.936;2024-01-10T01:04:50;100302.25;;;-15.41;62.90
40117;BME280;25829;50.228;18.936;2024-01-10T01:07:54;100308.16;;;-15.36;62.29
40117;BME280;25829;50.228;18.936;2024-01-10T01:10:54;100301.44;;;-15.34;61.85
40117;BME280;25829;50.228;18.936;2024-01-10T01:13:55;100300.59;;;-15.37;61.80
40117;BME280;25829;50.228;18.936;2024-01-10T01:16:56;100303.94;;;-15.46;61.50
40117;BME280;25829;50.228;18.936;2024-01-10T01:19:57;100292.97;;;-15.56;61.61
40117;BME280;25829;50.228;18.936;2024-01-10T01:22:57;100292.97;;;-15.57;61.64
40117;BME280;25829;50.228;18.936;2024-01-10T01:25:59;100291.31;;;-15.55;61.96
40117;BME280;25829;50.228;18.936;2024-01-10T01:28:59;100298.88;;;-15.49;62.11
40117;BME280;25829;50.228;18.936;2024-01-10T01:32:00;100308.16;;;-15.57;61.38
40117;BME280;25829;50.228;18.936;2024-01-10T01:35:01;100294.66;;;-15.58;62.29
40117;BME280;25829;50.228;18.936;2024-01-10T01:38:02;100310.69;;;-15.57;61.87
40117;BME280;25829;50.228;18.936;2024-01-10T01:41:02;100298.03;;;-15.57;62.25
40117;BME280;25829;50.228;18.936;2024-01-10T01:44:03;100302.25;;;-15.55;62.01
40117;BME280;25829;50.228;18.936;2024-01-10T01:47:04;100300.56;;;-15.53;62.63
40117;BME280;25829;50.228;18.936;2024-01-10T01:50:06;100297.22;;;-15.49;62.73
40117;BME280;25829;50.228;18.936;2024-01-10T01:53:07;100287.09;;;-15.44;63.12
40117;BME280;25829;50.228;18.936;2024-01-10T01:56:09;100278.63;;;-15.38;62.82
40117;BME280;25829;50.228;18.936;2024-01-10T01:59:11;100275.25;;;-15.36;62.46
40117;BME280;25829;50.228;18.936;2024-01-10T02:02:12;100274.41;;;-15.32;62.82
40117;BME280;25829;50.228;18.936;2024-01-10T02:05:15;100266.00;;;-15.34;62.26
40117;BME280;25829;50.228;18.936;2024-01-10T02:08:15;100256.69;;;-15.32;62.41
40117;BME280;25829;50.228;18.936;2024-01-10T02:11:16;100260.06;;;-15.30;61.85
40117;BME280;25829;50.228;18.936;2024-01-10T02:14:17;100254.16;;;-15.29;61.96
40117;BME280;25829;50.228;18.936;2024-01-10T02:17:18;100257.53;;;-15.36;61.16
40117;BME280;25829;50.228;18.936;2024-01-10T02:20:19;100261.75;;;-15.59;61.19
40117;BME280;25829;50.228;18.936;2024-01-10T02:23:22;100269.38;;;-15.88;60.98
40117;BME280;25829;50.228;18.936;2024-01-10T02:26:22;100266.81;;;-16.07;61.85
40117;BME280;25829;50.228;18.936;2024-01-10T02:29:23;100272.69;;;-16.08;62.46
40117;BME280;25829;50.228;18.936;2024-01-10T02:32:24;100274.41;;;-16.05;62.06
40117;BME280;25829;50.228;18.936;2024-01-10T02:35:25;100272.72;;;-15.97;62.89
40117;BME280;25829;50.228;18.936;2024-01-10T02:38:27;100265.16;;;-15.83;62.84
40117;BME280;25829;50.228;18.936;2024-01-10T02:41:28;100263.47;;;-15.72;63.12
40117;BME280;25829;50.228;18.936;2024-01-10T02:44:28;100259.25;;;-15.64;62.86
40117;BME280;25829;50.228;18.936;2024-01-10T02:47:29;100251.66;;;-15.55;63.28
40117;BME280;25829;50.228;18.936;2024-01-10T02:50:30;100249.97;;;-15.50;63.08
40117;BME280;25829;50.228;18.936;2024-01-10T02:53:30;100247.41;;;-15.42;62.81
40117;BME280;25829;50.228;18.936;2024-01-10T02:56:32;100243.19;;;-15.35;63.15
40117;BME280;25829;50.228;18.936;2024-01-10T02:59:33;100249.13;;;-15.33;62.77
40117;BME280;25829;50.228;18.936;2024-01-10T03:02:33;100242.38;;;-15.31;62.94
40117;BME280;25829;50.228;18.936;2024-01-10T03:05:34;100241.50;;;-15.29;62.25
40117;BME280;25829;50.228;18.936;2024-01-10T03:08:35;100246.59;;;-15.33;61.89
40117;BME280;25829;50.228;18.936;2024-01-10T03:11:35;100249.13;;;-15.44;62.15
40117;BME280;25829;50.228;18.936;2024-01-10T03:14:36;100243.22;;;-15.54;62.47
40117;BME280;25829;50.228;18.936;2024-01-10T03:17:37;100242.38;;;-15.60;61.72
40117;BME280;25829;50.228;18.936;2024-01-10T03:20:38;100237.31;;;-15.70;62.33
40117;BME280;25829;50.228;18.936;2024-01-10T03:23:38;100239.84;;;-15.63;62.52
40117;BME280;25829;50.228;18.936;2024-01-10T03:26:39;100235.66;;;-15.55;63.15
40117;BME280;25829;50.228;18.936;2024-01-10T03:29:40;100233.09;;;-15.46;62.96
40117;BME280;25829;50.228;18.936;2024-01-10T03:32:40;100227.16;;;-15.39;62.84
40117;BME280;25829;50.228;18.936;2024-01-10T03:35:41;100227.19;;;-15.31;63.07
40117;BME280;25829;50.228;18.936;2024-01-10T03:38:43;100237.28;;;-15.25;63.04
40117;BME280;25829;50.228;18.936;2024-01-10T03:41:44;100237.28;;;-15.19;62.99
40117;BME280;25829;50.228;18.936;2024-01-10T03:44:45;100238.94;;;-15.18;63.19
40117;BME280;25829;50.228;18.936;2024-01-10T03:47:46;100226.31;;;-15.20;63.51
40117;BME280;25829;50.228;18.936;2024-01-10T03:50:50;100233.03;;;-15.15;63.76
40117;BME280;25829;50.228;18.936;2024-01-10T03:53:52;100220.38;;;-15.09;63.32
40117;BME280;25829;50.228;18.936;2024-01-10T03:56:55;100222.06;;;-15.05;63.90
40117;BME280;25829;50.228;18.936;2024-01-10T03:59:56;100217.81;;;-15.02;63.19
40117;BME280;25829;50.228;18.936;2024-01-10T04:02:56;100213.59;;;-14.98;63.00
40117;BME280;25829;50.228;18.936;2024-01-10T04:05:57;100212.75;;;-14.99;63.38
40117;BME280;25829;50.228;18.936;2024-01-10T04:08:58;100202.63;;;-14.99;63.29
40117;BME280;25829;50.228;18.936;2024-01-10T04:11:58;100208.53;;;-15.00;62.89
40117;BME280;25829;50.228;18.936;2024-01-10T04:14:59;100213.66;;;-15.10;62.17
40117;BME280;25829;50.228;18.936;2024-01-10T04:18:00;100213.66;;;-15.26;62.15
40117;BME280;25829;50.228;18.936;2024-01-10T04:21:01;100217.06;;;-15.44;62.38
40117;BME280;25829;50.228;18.936;2024-01-10T04:24:02;100217.06;;;-15.44;62.60
40117;BME280;25829;50.228;18.936;2024-01-10T04:27:02;100219.59;;;-15.47;62.28
40117;BME280;25829;50.228;18.936;2024-01-10T04:30:04;100225.50;;;-15.46;62.65
40117;BME280;25829;50.228;18.936;2024-01-10T04:33:06;100230.56;;;-15.46;62.41
40117;BME280;25829;50.228;18.936;2024-01-10T04:36:06;100224.66;;;-15.51;62.17
40117;BME280;25829;50.228;18.936;2024-01-10T04:39:07;100220.44;;;-15.48;63.13
40117;BME280;25829;50.228;18.936;2024-01-10T04:42:10;100214.53;;;-15.42;63.29
40117;BME280;25829;50.228;18.936;2024-01-10T04:45:11;100217.91;;;-15.37;63.05
40117;BME280;25829;50.228;18.936;2024-01-10T04:48:12;100226.34;;;-15.33;62.85
40117;BME280;25829;50.228;18.936;2024-01-10T04:51:13;100217.06;;;-15.37;62.94
40117;BME280;25829;50.228;18.936;2024-01-10T04:54:15;100217.91;;;-15.37;62.62
40117;BME280;25829;50.228;18.936;2024-01-10T04:57:15;100213.66;;;-15.32;63.15
40117;BME280;25829;50.228;18.936;2024-01-10T05:00:16;100208.59;;;-15.26;63.13
40117;BME280;25829;50.228;18.936;2024-01-10T05:03:17;100224.63;;;-15.25;62.77
40117;BME280;25829;50.228;18.936;2024-01-10T05:06:18;100222.97;;;-15.31;62.72
40117;BME280;25829;50.228;18.936;2024-01-10T05:09:19;100227.19;;;-15.45;61.84
40117;BME280;25829;50.228;18.936;2024-01-10T05:12:19;100217.09;;;-15.59;62.33
40117;BME280;25829;50.228;18.936;2024-01-10T05:15:20;100215.41;;;-15.61;62.69
40117;BME280;25829;50.228;18.936;2024-01-10T05:18:21;100214.53;;;-15.63;62.62
40117;BME280;25829;50.228;18.936;2024-01-10T05:21:22;100219.63;;;-15.65;62.19
40117;BME280;25829;50.228;18.936;2024-01-10T05:24:23;100210.34;;;-15.61;63.05
40117;BME280;25829;50.228;18.936;2024-01-10T05:27:25;100202.72;;;-15.52;63.13
40117;BME280;25829;50.228;18.936;2024-01-10T05:30:26;100208.66;;;-15.49;62.40
40117;BME280;25829;50.228;18.936;2024-01-10T05:33:26;100212.00;;;-15.60;62.31
40117;BME280;25829;50.228;18.936;2024-01-10T05:36:27;100212.03;;;-15.62;62.56
40117;BME280;25829;50.228;18.936;2024-01-10T05:39:28;100201.91;;;-15.60;62.62
40117;BME280;25829;50.228;18.936;2024-01-10T05:42:28;100193.44;;;-15.59;62.46
40117;BME280;25829;50.228;18.936;2024-01-10T05:45:29;100201.91;;;-15.60;62.46
40117;BME280;25829;50.228;18.936;2024-01-10T05:48:30;100205.31;;;-15.74;62.28
40117;BME280;25829;50.228;18.936;2024-01-10T05:51:31;100203.63;;;-15.75;63.00
40117;BME280;25829;50.228;18.936;2024-01-10T05:54:32;100203.59;;;-15.70;62.28
40117;BME280;25829;50.228;18.936;2024-01-10T05:57:34;100207.81;;;-15.68;62.61
40117;BME280;25829;50.228;18.936;2024-01-10T06:00:35;100219.63;;;-15.62;63.16
40117;BME280;25829;50.228;18.936;2024-01-10T06:03:36;100211.19;;;-15.58;62.80
40117;BME280;25829;50.228;18.936;2024-01-10T06:06:37;100215.38;;;-15.52;62.55
40117;BME280;25829;50.228;18.936;2024-01-10T06:09:38;100213.69;;;-15.46;62.90
40117;BME280;25829;50.228;18.936;2024-01-10T06:12:40;100220.44;;;-15.41;62.88
40117;BME280;25829;50.228;18.936;2024-01-10T06:15:40;100223.81;;;-15.43;62.20
40117;BME280;25829;50.228;18.936;2024-01-10T06:18:42;100223.81;;;-15.41;62.57
40117;BME280;25829;50.228;18.936;2024-01-10T06:21:43;100222.09;;;-15.39;62.39
40117;BME280;25829;50.228;18.936;2024-01-10T06:24:44;100225.50;;;-15.37;62.61
40117;BME280;25829;50.228;18.936;2024-01-10T06:27:45;100233.06;;;-15.35;63.07
40117;BME280;25829;50.228;18.936;2024-01-10T06:30:45;100232.25;;;-15.45;62.17
40117;BME280;25829;50.228;18.936;2024-01-10T06:33:47;100233.09;;;-15.43;62.48
40117;BME280;25829;50.228;18.936;2024-01-10T06:36:47;100233.94;;;-15.41;62.44
40117;BME280;25829;50.228;18.936;2024-01-10T06:39:48;100245.72;;;-15.35;62.44
40117;BME280;25829;50.228;18.936;2024-01-10T06:42:49;100235.63;;;-15.31;62.52
40117;BME280;25829;50.228;18.936;2024-01-10T06:45:50;100233.91;;;-15.29;63.14
40117;BME280;25829;50.228;18.936;2024-01-10T06:48:51;100228.00;;;-15.22;64.53
40117;BME280;25829;50.228;18.936;2024-01-10T06:51:52;100236.44;;;-15.10;64.20
40117;BME280;25829;50.228;18.936;2024-01-10T06:54:53;100240.63;;;-15.08;63.46
40117;BME280;25829;50.228;18.936;2024-01-10T06:57:53;100235.56;;;-15.05;63.07
40117;BME280;25829;50.228;18.936;2024-01-10T07:00:54;100234.72;;;-15.02;63.17
40117;BME280;25829;50.228;18.936;2024-01-10T07:03:55;100229.63;;;-14.98;62.75
40117;BME280;25829;50.228;18.936;2024-01-10T07:06:56;100230.50;;;-15.06;62.38
40117;BME280;25829;50.228;18.936;2024-01-10T07:09:57;100231.34;;;-15.12;62.16
40117;BME280;25829;50.228;18.936;2024-01-10T07:12:57;100223.72;;;-15.07;62.93
40117;BME280;25829;50.228;18.936;2024-01-10T07:15:58;100224.56;;;-15.01;62.92
40117;BME280;25829;50.228;18.936;2024-01-10T07:19:02;100227.94;;;-14.97;62.78
40117;BME280;25829;50.228;18.936;2024-01-10T07:22:03;100216.09;;;-14.90;62.86
40117;BME280;25829;50.228;18.936;2024-01-10T07:25:04;100227.06;;;-14.87;63.22
40117;BME280;25829;50.228;18.936;2024-01-10T07:28:05;100223.69;;;-14.83;63.48
40117;BME280;25829;50.228;18.936;2024-01-10T07:31:05;100227.88;;;-14.74;63.44
40117;BME280;25829;50.228;18.936;2024-01-10T07:34:06;100221.94;;;-14.67;63.69
40117;BME280;25829;50.228;18.936;2024-01-10T07:37:07;100216.00;;;-14.61;63.38
40117;BME280;25829;50.228;18.936;2024-01-10T07:40:09;100219.34;;;-14.56;63.26
40117;BME280;25829;50.228;18.936;2024-01-10T07:43:11;100217.63;;;-14.50;63.11
40117;BME280;25829;50.228;18.936;2024-01-10T07:46:11;100226.94;;;-14.59;62.59
40117;BME280;25829;50.228;18.936;2024-01-10T07:49:12;100215.16;;;-14.66;62.97
40117;BME280;25829;50.228;18.936;2024-01-10T07:52:13;100210.06;;;-14.59;63.43
40117;BME280;25829;50.228;18.936;2024-01-10T07:55:14;100207.47;;;-14.50;63.86
40117;BME280;25829;50.228;18.936;2024-01-10T07:58:14;100207.41;;;-14.34;64.10
40117;BME280;25829;50.228;18.936;2024-01-10T08:01:16;100203.94;;;-14.23;63.98
40117;BME280;25829;50.228;18.936;2024-01-10T08:04:17;100200.53;;;-14.20;64.60
40117;BME280;25829;50.228;18.936;2024-01-10T08:07:18;100204.72;;;-14.16;64.88
40117;BME280;25829;50.228;18.936;2024-01-10T08:10:20;100209.75;;;-14.07;65.32
40117;BME280;25829;50.228;18.936;2024-01-10T08:13:20;100213.06;;;-13.95;64.99
40117;BME280;25829;50.228;18.936;2024-01-10T08:16:21;100200.28;;;-13.82;65.37
40117;BME280;25829;50.228;18.936;2024-01-10T08:19:22;100209.47;;;-13.68;65.44
40117;BME280;25829;50.228;18.936;2024-01-10T08:22:23;100205.94;;;-13.54;65.34
40117;BME280;25829;50.228;18.936;2024-01-10T08:25:23;100201.63;;;-13.41;65.67
40117;BME280;25829;50.228;18.936;2024-01-10T08:28:24;100200.75;;;-13.40;65.82
40117;BME280;25829;50.228;18.936;2024-01-10T08:31:26;100204.88;;;-13.31;65.67
40117;BME280;25829;50.228;18.936;2024-01-10T08:34:27;100195.41;;;-13.17;66.04
40117;BME280;25829;50.228;18.936;2024-01-10T08:37:28;100193.63;;;-13.06;66.51
40117;BME280;25829;50.228;18.936;2024-01-10T08:40:28;100198.72;;;-13.06;66.06
40117;BME280;25829;50.228;18.936;2024-01-10T08:43:30;100203.63;;;-12.93;66.70
40117;BME280;25829;50.228;18.936;2024-01-10T08:46:31;100198.34;;;-12.75;66.25
40117;BME280;25829;50.228;18.936;2024-01-10T08:49:32;100198.16;;;-12.61;66.42
40117;BME280;25829;50.228;18.936;2024-01-10T08:52:32;100198.78;;;-12.45;66.49
40117;BME280;25829;50.228;18.936;2024-01-10T08:55:33;100202.84;;;-12.34;66.08
40117;BME280;25829;50.228;18.936;2024-01-10T08:58:34;100199.31;;;-12.22;66.25
40117;BME280;25829;50.228;18.936;2024-01-10T09:01:35;100194.00;;;-12.05;66.91
40117;BME280;25829;50.228;18.936;2024-01-10T09:04:36;100196.28;;;-11.88;66.46
40117;BME280;25829;50.228;18.936;2024-01-10T09:07:36;100199.41;;;-11.71;66.74
40117;BME280;25829;50.228;18.936;2024-01-10T09:10:38;100201.59;;;-11.51;66.82
40117;BME280;25829;50.228;18.936;2024-01-10T09:13:38;100197.94;;;-11.34;66.43
40117;BME280;25829;50.228;18.936;2024-01-10T09:16:40;100195.19;;;-11.22;66.18
40117;BME280;25829;50.228;18.936;2024-01-10T09:19:41;100191.50;;;-11.09;66.75
40117;BME280;25829;50.228;18.936;2024-01-10T09:22:42;100186.09;;;-10.91;66.59
40117;BME280;25829;50.228;18.936;2024-01-10T09:25:43;100185.78;;;-10.78;66.91
40117;BME280;25829;50.228;18.936;2024-01-10T09:28:43;100179.69;;;-10.70;66.16
40117;BME280;25829;50.228;18.936;2024-01-10T09:31:44;100183.72;;;-10.59;66.43
40117;BME280;25829;50.228;18.936;2024-01-10T09:34:45;100186.78;;;-10.44;66.27
40117;BME280;25829;50.228;18.936;2024-01-10T09:37:46;100182.31;;;-10.34;65.68
40117;BME280;25829;50.228;18.936;2024-01-10T09:40:46;100188.94;;;-10.25;65.72
40117;BME280;25829;50.228;18.936;2024-01-10T09:43:47;100178.03;;;-9.95;66.50
40117;BME280;25829;50.228;18.936;2024-01-10T09:46:51;100179.34;;;-9.44;65.86
40117;BME280;25829;50.228;18.936;2024-01-10T09:49:52;100168.91;;;-8.73;65.65
40117;BME280;25829;50.228;18.936;2024-01-10T09:52:58;100169.22;;;-7.99;64.17
40117;BME280;25829;50.228;18.936;2024-01-10T09:55:59;100162.22;;;-7.42;62.19
40117;BME280;25829;50.228;18.936;2024-01-10T09:59:02;100164.66;;;-7.13;60.25
40117;BME280;25829;50.228;18.936;2024-01-10T10:02:06;100159.78;;;-6.97;60.09
40117;BME280;25829;50.228;18.936;2024-01-10T10:05:14;100153.81;;;-6.50;59.47
40117;BME280;25829;50.228;18.936;2024-01-10T10:08:18;100150.63;;;-6.12;58.44
40117;BME280;25829;50.228;18.936;2024-01-10T10:11:27;100145.03;;;-5.58;58.40
40117;BME280;25829;50.228;18.936;2024-01-10T10:14:29;100143.69;;;-5.06;57.05
40117;BME280;25829;50.228;18.936;2024-01-10T10:17:30;100146.69;;;-4.58;55.42
40117;BME280;25829;50.228;18.936;2024-01-10T10:20:31;100144.72;;;-4.34;54.44
40117;BME280;25829;50.228;18.936;2024-01-10T10:23:39;100135.94;;;-3.94;56.16
40117;BME280;25829;50.228;18.936;2024-01-10T10:26:39;100138.94;;;-3.50;53.93
40117;BME280;25829;50.228;18.936;2024-01-10T10:29:41;100137.06;;;-3.30;54.06
40117;BME280;25829;50.228;18.936;2024-01-10T10:32:42;100127.69;;;-2.98;54.85
40117;BME280;25829;50.228;18.936;2024-01-10T10:35:44;100142.06;;;-2.61;54.21
40117;BME280;25829;50.228;18.936;2024-01-10T10:38:47;100133.41;;;-2.28;54.36
40117;BME280;25829;50.228;18.936;2024-01-10T10:41:49;100126.59;;;-1.99;53.36
40117;BME280;25829;50.228;18.936;2024-01-10T10:44:57;100118.63;;;-1.80;52.57
40117;BME280;25829;50.228;18.936;2024-01-10T10:48:03;100127.22;;;-1.80;52.44
40117;BME280;25829;50.228;18.936;2024-01-10T10:51:32;100110.03;;;-1.81;52.92
40117;BME280;25829;50.228;18.936;2024-01-10T10:54:38;100111.63;;;-2.08;52.55
40117;BME280;25829;50.228;18.936;2024-01-10T10:57:59;100112.22;;;-2.51;53.10
40117;BME280;25829;50.228;18.936;2024-01-10T11:01:11;100116.19;;;-2.92;53.62
40117;BME280;25829;50.228;18.936;2024-01-10T11:04:30;100117.66;;;-3.37;54.27
40117;BME280;25829;50.228;18.936;2024-01-10T11:07:35;100114.56;;;-3.79;54.95
40117;BME280;25829;50.228;18.936;2024-01-10T11:10:39;100108.81;;;-4.01;56.00
40117;BME280;25829;50.228;18.936;2024-01-10T11:17:20;100100.97;;;-4.53;55.27
40117;BME280;25829;50.228;18.936;2024-01-10T11:23:43;100099.50;;;-4.97;56.73
40117;BME280;25829;50.228;18.936;2024-01-10T11:26:45;100089.25;;;-5.17;55.53
40117;BME280;25829;50.228;18.936;2024-01-10T11:29:46;100095.91;;;-5.32;56.40
40117;BME280;25829;50.228;18.936;2024-01-10T11:32:48;100096.38;;;-5.43;56.88
40117;BME280;25829;50.228;18.936;2024-01-10T11:36:19;100101.66;;;-5.46;57.44
40117;BME280;25829;50.228;18.936;2024-01-10T11:42:45;100092.13;;;-5.44;57.11
40117;BME280;25829;50.228;18.936;2024-01-10T11:57:40;100088.09;;;-5.49;57.64
40117;BME280;25829;50.228;18.936;2024-01-10T12:00:41;100086.00;;;-5.41;57.95
40117;BME280;25829;50.228;18.936;2024-01-10T12:03:42;100084.09;;;-5.36;57.01
40117;BME280;25829;50.228;18.936;2024-01-10T12:06:45;100077.31;;;-5.39;57.41
40117;BME280;25829;50.228;18.936;2024-01-10T12:09:46;100084.66;;;-5.29;57.58
40117;BME280;25829;50.228;18.936;2024-01-10T12:12:47;100068.25;;;-5.27;57.64
40117;BME280;25829;50.228;18.936;2024-01-10T12:15:48;100067.34;;;-5.26;57.29
40117;BME280;25829;50.228;18.936;2024-01-10T12:18:48;100069.72;;;-5.21;57.66
40117;BME280;25829;50.228;18.936;2024-01-10T12:21:49;100066.03;;;-5.16;57.34
40117;BME280;25829;50.228;18.936;2024-01-10T12:24:50;100065.97;;;-5.14;57.35
40117;BME280;25829;50.228;18.936;2024-01-10T12:27:51;100066.59;;;-5.09;57.59
40117;BME280;25829;50.228;18.936;2024-01-10T12:30:52;100066.94;;;-4.98;58.48
40117;BME280;25829;50.228;18.936;2024-01-10T12:34:11;100064.81;;;-4.88;58.07
40117;BME280;25829;50.228;18.936;2024-01-10T12:37:15;100062.97;;;-4.86;57.22
40117;BME280;25829;50.228;18.936;2024-01-10T12:40:22;100062.91;;;-4.84;57.56
40117;BME280;25829;50.228;18.936;2024-01-10T12:48:35;100057.31;;;-4.75;57.04
40117;BME280;25829;50.228;18.936;2024-01-10T12:51:39;100048.50;;;-4.70;57.17
40117;BME280;25829;50.228;18.936;2024-01-10T12:54:40;100056.00;;;-4.65;56.76
40117;BME280;25829;50.228;18.936;2024-01-10T12:57:40;100044.72;;;-4.62;56.69
40117;BME280;25829;50.228;18.936;2024-01-10T13:00:42;100042.16;;;-4.62;55.96
40117;BME280;25829;50.228;18.936;2024-01-10T13:04:03;100041.19;;;-4.60;56.15
40117;BME280;25829;50.228;18.936;2024-01-10T13:07:04;100034.38;;;-4.61;55.29
40117;BME280;25829;50.228;18.936;2024-01-10T13:10:08;100024.06;;;-4.61;55.78
40117;BME280;25829;50.228;18.936;2024-01-10T13:13:12;100025.78;;;-4.61;55.78
40117;BME280;25829;50.228;18.936;2024-01-10T13:16:22;100025.72;;;-4.60;56.13
40117;BME280;25829;50.228;18.936;2024-01-10T13:19:27;100026.63;;;-4.61;55.72
40117;BME280;25829;50.228;18.936;2024-01-10T13:22:28;100021.50;;;-4.61;55.49
40117;BME280;25829;50.228;18.936;2024-01-10T13:25:30;100018.91;;;-4.61;55.86
40117;BME280;25829;50.228;18.936;2024-01-10T13:28:31;100014.59;;;-4.60;56.01
40117;BME280;25829;50.228;18.936;2024-01-10T13:31:52;100012.84;;;-4.60;56.29
40117;BME280;25829;50.228;18.936;2024-01-10T13:35:02;100008.53;;;-4.59;56.40
40117;BME280;25829;50.228;18.936;2024-01-10T13:38:17;100006.03;;;-4.61;56.18
40117;BME280;25829;50.228;18.936;2024-01-10T13:45:19;100006.78;;;-4.59;56.40
40117;BME280;25829;50.228;18.936;2024-01-10T13:48:30;100007.56;;;-4.57;56.15
40117;BME280;25829;50.228;18.936;2024-01-10T13:51:31;100012.00;;;-4.60;56.37
40117;BME280;25829;50.228;18.936;2024-01-10T13:54:44;100010.97;;;-4.56;56.59
40117;BME280;25829;50.228;18.936;2024-01-10T13:58:36;100013.44;;;-4.55;56.43
40117;BME280;25829;50.228;18.936;2024-01-10T14:18:52;100000.03;;;-4.44;57.56
40117;BME280;25829;50.228;18.936;2024-01-10T14:21:55;100000.00;;;-4.43;57.83
40117;BME280;25829;50.228;18.936;2024-01-10T14:25:03;99996.66;;;-4.45;58.25
40117;BME280;25829;50.228;18.936;2024-01-10T14:28:12;100002.72;;;-4.46;58.48
40117;BME280;25829;50.228;18.936;2024-01-10T14:31:12;100003.63;;;-4.47;58.14
40117;BME280;25829;50.228;18.936;2024-01-10T14:34:46;100008.84;;;-4.48;57.81
40117;BME280;25829;50.228;18.936;2024-01-10T14:37:53;100003.91;;;-4.53;58.16
40117;BME280;25829;50.228;18.936;2024-01-10T14:44:45;99996.84;;;-4.67;58.37
40117;BME280;25829;50.228;18.936;2024-01-10T14:47:48;100001.53;;;-4.75;58.24
40117;BME280;25829;50.228;18.936;2024-01-10T14:51:02;99999.25;;;-4.81;58.78
40117;BME280;25829;50.228;18.936;2024-01-10T14:54:45;99999.75;;;-4.92;58.60
40117;BME280;25829;50.228;18.936;2024-01-10T14:58:02;100000.38;;;-5.05;59.19
40117;BME280;25829;50.228;18.936;2024-01-10T15:01:15;99998.91;;;-5.11;59.82
40117;BME280;25829;50.228;18.936;2024-01-10T15:12:37;99991.97;;;-5.28;60.65
40117;BME280;25829;50.228;18.936;2024-01-10T15:20:46;99996.69;;;-5.56;61.53
40117;BME280;25829;50.228;18.936;2024-01-10T15:24:07;100007.22;;;-5.63;61.75
40117;BME280;25829;50.228;18.936;2024-01-10T15:31:27;99986.75;;;-5.85;61.78
40117;BME280;25829;50.228;18.936;2024-01-10T15:35:32;99982.66;;;-6.09;62.23
40117;BME280;25829;50.228;18.936;2024-01-10T15:38:36;99993.28;;;-6.17;62.21
40117;BME280;25829;50.228;18.936;2024-01-10T15:42:11;99990.41;;;-6.31;62.58
40117;BME280;25829;50.228;18.936;2024-01-10T15:45:26;99986.56;;;-6.41;62.77
40117;BME280;25829;50.228;18.936;2024-01-10T15:48:33;99987.69;;;-6.48;62.79
40117;BME280;25829;50.228;18.936;2024-01-10T15:51:42;99983.59;;;-6.52;63.07
40117;BME280;25829;50.228;18.936;2024-01-10T15:54:53;99980.38;;;-6.58;63.17
40117;BME280;25829;50.228;18.936;2024-01-10T15:57:56;99987.28;;;-6.60;63.41
40117;BME280;25829;50.228;18.936;2024-01-10T16:00:58;99980.69;;;-6.65;63.32
40117;BME280;25829;50.228;18.936;2024-01-10T16:03:59;99975.69;;;-6.68;63.40
40117;BME280;25829;50.228;18.936;2024-01-10T16:07:03;99975.00;;;-6.73;63.63
40117;BME280;25829;50.228;18.936;2024-01-10T16:10:04;99972.88;;;-6.84;63.89
40117;BME280;25829;50.228;18.936;2024-01-10T16:13:10;99973.06;;;-6.89;63.56
40117;BME280;25829;50.228;18.936;2024-01-10T16:16:11;99979.13;;;-6.91;63.54
40117;BME280;25829;50.228;18.936;2024-01-10T16:19:12;99970.72;;;-6.95;63.46
40117;BME280;25829;50.228;18.936;2024-01-10T16:22:25;99976.81;;;-6.97;63.24
40117;BME280;25829;50.228;18.936;2024-01-10T16:25:26;99984.88;;;-7.07;63.27
40117;BME280;25829;50.228;18.936;2024-01-10T16:28:27;99990.34;;;-7.16;63.27
40117;BME280;25829;50.228;18.936;2024-01-10T16:31:34;99977.69;;;-7.20;63.40
40117;BME280;25829;50.228;18.936;2024-01-10T16:34:36;99978.03;;;-7.30;63.65
40117;BME280;25829;50.228;18.936;2024-01-10T16:37:37;99966.44;;;-7.40;63.72
40117;BME280;25829;50.228;18.936;2024-01-10T16:40:39;99965.81;;;-7.45;63.94
40117;BME280;25829;50.228;18.936;2024-01-10T16:47:29;99967.75;;;-7.52;63.77
40117;BME280;25829;50.228;18.936;2024-01-10T16:50:36;99967.91;;;-7.56;63.79
40117;BME280;25829;50.228;18.936;2024-01-10T16:53:40;99964.72;;;-7.63;63.78